createdAt,value
2017-05-19T00:00:41.816Z,0
2017-05-19T00:01:42.521Z,0
2017-05-19T00:02:43.423Z,0
2017-05-19T00:03:44.126Z,0
2017-05-19T00:04:44.837Z,0
2017-05-19T00:05:45.541Z,0
2017-05-19T00:06:46.245Z,0
2017-05-19T00:07:47.149Z,0
2017-05-19T00:08:47.854Z,0
2017-05-19T00:09:48.555Z,0
2017-05-19T00:10:49.256Z,0
2017-05-19T00:11:49.961Z,0
2017-05-19T00:12:50.871Z,0
2017-05-19T00:13:51.573Z,0
2017-05-19T00:14:52.276Z,0
2017-05-19T00:15:52.978Z,0
2017-05-19T00:16:53.685Z,0
2017-05-19T00:17:54.638Z,0
2017-05-19T00:18:55.343Z,0
2017-05-19T00:19:56.053Z,0
2017-05-19T00:20:56.756Z,0
2017-05-19T00:21:57.464Z,0
2017-05-19T00:22:58.368Z,0
2017-05-19T00:23:59.067Z,0
2017-05-19T00:24:59.770Z,0
2017-05-19T00:26:00.475Z,0
2017-05-19T00:27:01.174Z,0
2017-05-19T00:28:02.087Z,0
2017-05-19T00:29:02.804Z,0
2017-05-19T00:30:03.503Z,0
2017-05-19T00:31:04.208Z,0
2017-05-19T00:32:04.915Z,0
2017-05-19T00:33:05.818Z,0
2017-05-19T00:34:06.522Z,0
2017-05-19T00:35:07.229Z,0
2017-05-19T00:36:07.935Z,0
2017-05-19T00:37:08.637Z,0
2017-05-19T00:38:09.539Z,0
2017-05-19T00:39:10.241Z,0
2017-05-19T00:40:10.942Z,0
2017-05-19T00:41:11.643Z,0
2017-05-19T00:42:12.345Z,0
2017-05-19T00:43:13.250Z,0
2017-05-19T00:44:13.955Z,0
2017-05-19T00:45:14.660Z,0
2017-05-19T00:46:15.365Z,0
2017-05-19T00:47:16.071Z,0
2017-05-19T00:48:16.973Z,0
2017-05-19T00:49:17.678Z,0
2017-05-19T00:50:18.405Z,0
2017-05-19T00:51:19.114Z,0
2017-05-19T00:52:19.821Z,0
2017-05-19T00:53:20.724Z,0
2017-05-19T00:54:21.435Z,0
2017-05-19T00:55:22.138Z,0
2017-05-19T00:56:22.850Z,0
2017-05-19T00:57:23.553Z,0
2017-05-19T00:58:24.455Z,0
2017-05-19T00:59:25.158Z,0
2017-05-19T01:00:25.858Z,0
2017-05-19T01:01:26.563Z,0
2017-05-19T01:02:27.263Z,0
2017-05-19T01:03:28.170Z,0
2017-05-19T01:04:28.874Z,0
2017-05-19T01:05:29.575Z,0
2017-05-19T01:06:30.282Z,0
2017-05-19T01:07:30.981Z,0
2017-05-19T01:08:31.885Z,0
2017-05-19T01:09:32.591Z,0
2017-05-19T01:10:33.299Z,0
2017-05-19T01:11:34.005Z,0
2017-05-19T01:12:34.709Z,0
2017-05-19T01:13:35.611Z,0
2017-05-19T01:14:36.315Z,0
2017-05-19T01:15:37.018Z,0
2017-05-19T01:16:37.736Z,0
2017-05-19T01:17:38.445Z,0
2017-05-19T01:18:39.345Z,0
2017-05-19T01:19:40.050Z,0
2017-05-19T01:20:40.752Z,0
2017-05-19T01:21:41.454Z,0
2017-05-19T01:22:42.155Z,0
2017-05-19T01:23:43.060Z,0
2017-05-19T01:24:43.764Z,0
2017-05-19T01:25:44.471Z,0
2017-05-19T01:26:45.171Z,0
2017-05-19T01:27:45.875Z,0
2017-05-19T01:28:46.785Z,0
2017-05-19T01:29:47.487Z,0
2017-05-19T01:30:48.193Z,0
2017-05-19T01:31:48.905Z,0
2017-05-19T01:32:49.614Z,0
2017-05-19T01:33:50.569Z,0
2017-05-19T01:34:51.273Z,0
2017-05-19T01:35:51.978Z,0
2017-05-19T01:36:52.680Z,0
2017-05-19T01:37:53.383Z,0
2017-05-19T01:38:54.288Z,0
2017-05-19T01:39:55.001Z,0
2017-05-19T01:40:55.703Z,0
2017-05-19T01:41:56.411Z,0
2017-05-19T01:42:57.111Z,0
2017-05-19T01:43:58.015Z,0
2017-05-19T01:44:58.717Z,0
2017-05-19T01:45:59.420Z,0
2017-05-19T01:47:00.125Z,0
2017-05-19T01:48:00.830Z,0
2017-05-19T01:49:01.734Z,0
2017-05-19T01:50:02.434Z,0
2017-05-19T01:51:03.140Z,0
2017-05-19T01:52:03.843Z,0
2017-05-19T01:53:04.548Z,0
2017-05-19T01:54:05.451Z,0
2017-05-19T01:55:06.155Z,0
2017-05-19T01:56:06.858Z,0
2017-05-19T01:57:07.562Z,0
2017-05-19T01:58:08.270Z,0
2017-05-19T01:59:09.182Z,0
2017-05-19T02:00:09.886Z,0
2017-05-19T02:01:10.590Z,0
2017-05-19T02:02:11.292Z,0
2017-05-19T02:03:11.994Z,0
2017-05-19T02:04:12.900Z,0
2017-05-19T02:05:13.602Z,0
2017-05-19T02:06:14.312Z,0
2017-05-19T02:07:15.016Z,0
2017-05-19T02:08:15.719Z,0
2017-05-19T02:09:16.624Z,0
2017-05-19T02:10:17.334Z,0
2017-05-19T02:11:18.035Z,0
2017-05-19T02:12:18.749Z,0
2017-05-19T02:13:19.460Z,0
2017-05-19T02:14:20.366Z,0
2017-05-19T02:15:21.070Z,0
2017-05-19T02:16:21.768Z,0
2017-05-19T02:17:22.475Z,0
2017-05-19T02:18:23.179Z,0
2017-05-19T02:19:24.083Z,0
2017-05-19T02:20:24.785Z,0
2017-05-19T02:21:25.493Z,0
2017-05-19T02:22:26.197Z,0
2017-05-19T02:23:26.900Z,0
2017-05-19T02:24:27.804Z,0
2017-05-19T02:25:28.516Z,0
2017-05-19T02:26:29.223Z,0
2017-05-19T02:27:29.927Z,0
2017-05-19T02:28:30.631Z,0
2017-05-19T02:29:31.537Z,0
2017-05-19T02:30:32.243Z,0
2017-05-19T02:31:32.955Z,0
2017-05-19T02:32:33.651Z,0
2017-05-19T02:33:34.355Z,0
2017-05-19T02:34:35.255Z,0
2017-05-19T02:35:35.957Z,0
2017-05-19T02:36:36.661Z,0
2017-05-19T02:37:37.366Z,0
2017-05-19T02:38:38.066Z,0
2017-05-19T02:39:38.975Z,0
2017-05-19T02:40:39.676Z,0
2017-05-19T02:41:40.374Z,0
2017-05-19T02:42:41.082Z,0
2017-05-19T02:43:41.782Z,0
2017-05-19T02:44:42.691Z,0
2017-05-19T02:45:43.396Z,0
2017-05-19T02:46:44.097Z,0
2017-05-19T02:47:44.800Z,0
2017-05-19T02:48:45.502Z,0
2017-05-19T02:49:46.405Z,0
2017-05-19T02:50:47.107Z,0
2017-05-19T02:51:47.812Z,0
2017-05-19T02:52:48.525Z,0
2017-05-19T02:53:49.222Z,0
2017-05-19T02:54:50.126Z,0
2017-05-19T02:55:50.835Z,0
2017-05-19T02:56:51.539Z,0
2017-05-19T02:57:52.242Z,0
2017-05-19T02:58:52.944Z,0
2017-05-19T02:59:53.856Z,0
2017-05-19T03:00:54.558Z,0
2017-05-19T03:01:55.260Z,0
2017-05-19T03:02:55.963Z,0
2017-05-19T03:03:56.664Z,0
2017-05-19T03:04:57.567Z,0
2017-05-19T03:05:58.277Z,0
2017-05-19T03:06:58.977Z,0
2017-05-19T03:07:59.680Z,0
2017-05-19T03:09:00.388Z,0
2017-05-19T03:10:01.295Z,0
2017-05-19T03:11:01.999Z,0
2017-05-19T03:12:02.706Z,0
2017-05-19T03:13:03.407Z,0
2017-05-19T03:14:04.111Z,0
2017-05-19T03:15:05.020Z,0
2017-05-19T03:16:05.726Z,0
2017-05-19T03:17:06.430Z,0
2017-05-19T03:18:07.135Z,0
2017-05-19T03:19:07.843Z,0
2017-05-19T03:20:08.749Z,0
2017-05-19T03:21:09.454Z,0
2017-05-19T03:22:10.158Z,0
2017-05-19T03:23:10.859Z,0
2017-05-19T03:24:11.563Z,0
2017-05-19T03:25:12.463Z,0
2017-05-19T03:26:13.162Z,0
2017-05-19T03:27:13.867Z,0
2017-05-19T03:28:14.570Z,0
2017-05-19T03:29:15.277Z,0
2017-05-19T03:30:16.182Z,0
2017-05-19T03:31:16.887Z,5
2017-05-19T03:32:17.588Z,5
2017-05-19T03:33:18.291Z,5
2017-05-19T03:34:19.004Z,5
2017-05-19T03:35:19.907Z,5
2017-05-19T03:36:20.610Z,5
2017-05-19T03:37:21.312Z,5
2017-05-19T03:38:22.014Z,5
2017-05-19T03:39:22.715Z,5
2017-05-19T03:40:23.617Z,5
2017-05-19T03:41:24.319Z,5
2017-05-19T03:42:25.024Z,10
2017-05-19T03:43:25.730Z,10
2017-05-19T03:44:26.439Z,10
2017-05-19T03:45:27.347Z,10
2017-05-19T03:46:28.048Z,10
2017-05-19T03:47:28.755Z,10
2017-05-19T03:48:29.469Z,10
2017-05-19T03:49:30.180Z,10
2017-05-19T03:50:31.085Z,15
2017-05-19T03:51:31.803Z,15
2017-05-19T03:52:32.507Z,15
2017-05-19T03:53:33.208Z,15
2017-05-19T03:54:33.915Z,15
2017-05-19T03:55:34.817Z,15
2017-05-19T03:56:35.519Z,15
2017-05-19T03:57:36.222Z,15
2017-05-19T03:58:36.927Z,20
2017-05-19T03:59:37.633Z,20
2017-05-19T04:00:38.542Z,20
2017-05-19T04:01:39.247Z,20
2017-05-19T04:02:39.958Z,20
2017-05-19T04:03:40.660Z,20
2017-05-19T04:04:41.373Z,25
2017-05-19T04:05:42.276Z,25
2017-05-19T04:06:42.982Z,25
2017-05-19T04:07:43.686Z,25
2017-05-19T04:08:44.389Z,25
2017-05-19T04:09:45.096Z,30
2017-05-19T04:10:45.999Z,30
2017-05-19T04:11:46.706Z,30
2017-05-19T04:12:47.414Z,30
2017-05-19T04:13:48.120Z,30
2017-05-19T04:14:48.827Z,35
2017-05-19T04:15:49.732Z,35
2017-05-19T04:16:50.435Z,35
2017-05-19T04:17:51.142Z,35
2017-05-19T04:18:51.843Z,40
2017-05-19T04:19:52.552Z,40
2017-05-19T04:20:53.457Z,40
2017-05-19T04:21:54.163Z,40
2017-05-19T04:22:54.871Z,40
2017-05-19T04:23:55.578Z,45
2017-05-19T04:24:56.284Z,45
2017-05-19T04:25:57.236Z,45
2017-05-19T04:26:57.937Z,45
2017-05-19T04:27:58.638Z,45
2017-05-19T04:28:59.341Z,45
2017-05-19T04:30:00.050Z,50
2017-05-19T04:31:00.971Z,50
2017-05-19T04:32:01.687Z,50
2017-05-19T04:33:02.389Z,50
2017-05-19T04:34:03.096Z,50
2017-05-19T04:35:03.800Z,50
2017-05-19T04:36:04.707Z,55
2017-05-19T04:37:05.421Z,55
2017-05-19T04:38:06.129Z,55
2017-05-19T04:39:06.837Z,55
2017-05-19T04:40:07.539Z,55
2017-05-19T04:41:08.443Z,55
2017-05-19T04:42:09.147Z,55
2017-05-19T04:43:09.853Z,60
2017-05-19T04:44:10.558Z,60
2017-05-19T04:45:11.268Z,60
2017-05-19T04:46:12.174Z,60
2017-05-19T04:47:12.882Z,60
2017-05-19T04:48:13.590Z,60
2017-05-19T04:49:14.295Z,60
2017-05-19T04:50:14.997Z,60
2017-05-19T04:51:15.902Z,60
2017-05-19T04:52:16.616Z,60
2017-05-19T04:53:17.322Z,60
2017-05-19T04:54:18.026Z,60
2017-05-19T04:55:18.749Z,55
2017-05-19T04:56:19.708Z,60
2017-05-19T04:57:20.419Z,60
2017-05-19T04:58:21.129Z,60
2017-05-19T04:59:21.835Z,60
2017-05-19T05:00:22.544Z,65
2017-05-19T05:01:23.451Z,65
2017-05-19T05:02:24.161Z,65
2017-05-19T05:03:24.871Z,65
2017-05-19T05:04:25.574Z,65
2017-05-19T05:05:26.278Z,65
2017-05-19T05:06:27.188Z,65
2017-05-19T05:07:27.894Z,60
2017-05-19T05:08:28.603Z,60
2017-05-19T05:09:29.310Z,60
2017-05-19T05:10:30.014Z,60
2017-05-19T05:11:30.919Z,60
2017-05-19T05:12:31.626Z,55
2017-05-19T05:13:32.332Z,55
2017-05-19T05:14:33.036Z,55
2017-05-19T05:15:33.744Z,55
2017-05-19T05:16:34.697Z,55
2017-05-19T05:17:35.399Z,55
2017-05-19T05:18:36.104Z,55
2017-05-19T05:19:36.811Z,55
2017-05-19T05:20:37.515Z,55
2017-05-19T05:21:38.423Z,55
2017-05-19T05:22:39.126Z,55
2017-05-19T05:23:39.833Z,55
2017-05-19T05:24:40.538Z,55
2017-05-19T05:25:41.243Z,55
2017-05-19T05:26:42.147Z,60
2017-05-19T05:27:42.854Z,60
2017-05-19T05:28:43.557Z,60
2017-05-19T05:29:44.263Z,60
2017-05-19T05:30:44.969Z,65
2017-05-19T05:31:45.876Z,65
2017-05-19T05:32:46.581Z,65
2017-05-19T05:33:47.287Z,65
2017-05-19T05:34:47.997Z,65
2017-05-19T05:35:48.702Z,65
2017-05-19T05:36:49.605Z,65
2017-05-19T05:37:50.313Z,65
2017-05-19T05:38:51.028Z,70
2017-05-19T05:39:51.738Z,70
2017-05-19T05:40:52.441Z,75
2017-05-19T05:41:53.347Z,75
2017-05-19T05:42:54.050Z,75
2017-05-19T05:43:54.761Z,75
2017-05-19T05:44:55.466Z,75
2017-05-19T05:45:56.169Z,75
2017-05-19T05:46:57.086Z,75
2017-05-19T05:47:57.791Z,75
2017-05-19T05:48:58.494Z,80
2017-05-19T05:49:59.202Z,80
2017-05-19T05:50:59.907Z,80
2017-05-19T05:52:00.808Z,85
2017-05-19T05:53:01.513Z,85
2017-05-19T05:54:02.223Z,85
2017-05-19T05:55:02.929Z,85
2017-05-19T05:56:03.641Z,85
2017-05-19T05:57:04.605Z,80
2017-05-19T05:58:05.315Z,85
2017-05-19T05:59:06.021Z,80
2017-05-19T06:00:06.734Z,85
2017-05-19T06:01:07.437Z,85
2017-05-19T06:02:08.395Z,85
2017-05-19T06:03:09.100Z,85
2017-05-19T06:04:09.807Z,85
2017-05-19T06:05:10.513Z,90
2017-05-19T06:06:11.217Z,90
2017-05-19T06:07:12.178Z,90
2017-05-19T06:08:12.888Z,95
2017-05-19T06:09:13.592Z,95
2017-05-19T06:10:14.296Z,95
2017-05-19T06:11:15.000Z,95
2017-05-19T06:12:15.956Z,95
2017-05-19T06:13:16.659Z,95
2017-05-19T06:14:17.372Z,95
2017-05-19T06:15:18.083Z,95
2017-05-19T06:16:18.794Z,95
2017-05-19T06:17:19.700Z,95
2017-05-19T06:18:20.407Z,95
2017-05-19T06:19:21.111Z,90
2017-05-19T06:20:21.819Z,90
2017-05-19T06:21:22.525Z,90
2017-05-19T06:22:23.427Z,90
2017-05-19T06:23:24.145Z,85
2017-05-19T06:24:24.857Z,85
2017-05-19T06:25:25.564Z,90
2017-05-19T06:26:26.280Z,90
2017-05-19T06:27:27.234Z,90
2017-05-19T06:28:27.948Z,100
2017-05-19T06:29:28.658Z,100
2017-05-19T06:30:29.362Z,100
2017-05-19T06:31:30.074Z,100
2017-05-19T06:32:31.033Z,100
2017-05-19T06:33:31.742Z,100
2017-05-19T06:34:32.451Z,100
2017-05-19T06:35:33.159Z,105
2017-05-19T06:36:33.865Z,105
2017-05-19T06:37:34.776Z,105
2017-05-19T06:38:35.486Z,105
2017-05-19T06:39:36.192Z,105
2017-05-19T06:40:36.902Z,105
2017-05-19T06:41:37.611Z,105
2017-05-19T06:42:38.573Z,105
2017-05-19T06:43:39.281Z,105
2017-05-19T06:44:39.990Z,110
2017-05-19T06:45:40.696Z,110
2017-05-19T06:46:41.406Z,110
2017-05-19T06:47:42.361Z,115
2017-05-19T06:48:43.070Z,115
2017-05-19T06:49:43.777Z,115
2017-05-19T06:50:44.489Z,115
2017-05-19T06:51:45.208Z,115
2017-05-19T06:52:46.168Z,115
2017-05-19T06:53:46.876Z,115
2017-05-19T06:54:47.583Z,120
2017-05-19T06:55:48.292Z,120
2017-05-19T06:56:48.999Z,120
2017-05-19T06:57:49.910Z,120
2017-05-19T06:58:50.622Z,120
2017-05-19T06:59:51.339Z,120
2017-05-19T07:00:52.046Z,125
2017-05-19T07:01:52.750Z,120
2017-05-19T07:02:53.769Z,125
2017-05-19T07:03:54.475Z,125
2017-05-19T07:04:55.182Z,135
2017-05-19T07:05:55.902Z,135
2017-05-19T07:06:56.609Z,135
2017-05-19T07:07:57.518Z,140
2017-05-19T07:08:58.149Z,145
2017-05-19T07:09:58.928Z,145
2017-05-19T07:10:59.638Z,150
2017-05-19T07:12:00.352Z,155
2017-05-19T07:13:01.260Z,155
2017-05-19T07:14:01.971Z,170
2017-05-19T07:15:02.676Z,175
2017-05-19T07:16:03.398Z,180
2017-05-19T07:17:04.113Z,185
2017-05-19T07:18:05.022Z,185
2017-05-19T07:19:05.727Z,190
2017-05-19T07:20:06.452Z,200
2017-05-19T07:21:07.163Z,205
2017-05-19T07:22:07.871Z,200
2017-05-19T07:23:08.832Z,205
2017-05-19T07:24:09.559Z,205
2017-05-19T07:25:10.264Z,205
2017-05-19T07:26:10.971Z,210
2017-05-19T07:27:11.680Z,210
2017-05-19T07:28:12.644Z,210
2017-05-19T07:29:13.351Z,210
2017-05-19T07:30:14.061Z,210
2017-05-19T07:31:14.778Z,200
2017-05-19T07:32:15.488Z,200
2017-05-19T07:33:16.396Z,205
2017-05-19T07:34:17.107Z,205
2017-05-19T07:35:17.818Z,195
2017-05-19T07:36:18.529Z,195
2017-05-19T07:37:19.243Z,185
2017-05-19T07:38:20.204Z,195
2017-05-19T07:39:20.912Z,185
2017-05-19T07:40:21.621Z,185
2017-05-19T07:41:22.329Z,195
2017-05-19T07:42:23.048Z,190
2017-05-19T07:43:24.005Z,210
2017-05-19T07:44:24.715Z,215
2017-05-19T07:45:25.425Z,215
2017-05-19T07:46:26.133Z,205
2017-05-19T07:47:26.842Z,215
2017-05-19T07:48:27.812Z,215
2017-05-19T07:49:28.523Z,215
2017-05-19T07:50:29.239Z,215
2017-05-19T07:51:29.956Z,215
2017-05-19T07:52:30.669Z,200
2017-05-19T07:53:31.631Z,205
2017-05-19T07:54:32.343Z,210
2017-05-19T07:55:33.057Z,215
2017-05-19T07:56:33.763Z,210
2017-05-19T07:57:34.474Z,200
2017-05-19T07:58:35.406Z,205
2017-05-19T07:59:36.130Z,210
2017-05-19T08:00:36.840Z,210
2017-05-19T08:01:37.549Z,215
2017-05-19T08:02:38.258Z,210
2017-05-19T08:03:39.267Z,215
2017-05-19T08:04:39.992Z,225
2017-05-19T08:05:40.703Z,245
2017-05-19T08:06:41.416Z,260
2017-05-19T08:07:42.129Z,250
2017-05-19T08:08:43.045Z,270
2017-05-19T08:09:43.764Z,265
2017-05-19T08:10:44.472Z,260
2017-05-19T08:11:45.194Z,265
2017-05-19T08:12:45.908Z,270
2017-05-19T08:13:46.818Z,285
2017-05-19T08:14:47.531Z,315
2017-05-19T08:15:48.242Z,325
2017-05-19T08:16:48.954Z,305
2017-05-19T08:17:49.665Z,305
2017-05-19T08:18:50.627Z,285
2017-05-19T08:19:51.339Z,275
2017-05-19T08:20:52.049Z,250
2017-05-19T08:21:52.758Z,240
2017-05-19T08:22:53.468Z,240
2017-05-19T08:23:54.382Z,240
2017-05-19T08:24:55.099Z,250
2017-05-19T08:25:55.806Z,265
2017-05-19T08:26:56.515Z,260
2017-05-19T08:27:57.224Z,255
2017-05-19T08:28:58.186Z,250
2017-05-19T08:29:58.898Z,250
2017-05-19T08:30:59.622Z,250
2017-05-19T08:32:00.340Z,245
2017-05-19T08:33:01.047Z,245
2017-05-19T08:34:02.011Z,235
2017-05-19T08:35:02.726Z,240
2017-05-19T08:36:03.432Z,250
2017-05-19T08:37:04.140Z,275
2017-05-19T08:38:04.854Z,265
2017-05-19T08:39:05.814Z,240
2017-05-19T08:40:06.522Z,230
2017-05-19T08:41:07.232Z,235
2017-05-19T08:42:07.942Z,245
2017-05-19T08:43:08.654Z,260
2017-05-19T08:44:09.567Z,260
2017-05-19T08:45:10.278Z,265
2017-05-19T08:46:10.998Z,265
2017-05-19T08:47:11.710Z,280
2017-05-19T08:48:12.416Z,285
2017-05-19T08:49:13.326Z,270
2017-05-19T08:50:14.038Z,265
2017-05-19T08:51:14.745Z,280
2017-05-19T08:52:15.454Z,260
2017-05-19T08:53:16.165Z,280
2017-05-19T08:54:17.124Z,280
2017-05-19T08:55:17.834Z,295
2017-05-19T08:56:18.545Z,320
2017-05-19T08:57:19.253Z,330
2017-05-19T08:58:19.961Z,340
2017-05-19T08:59:20.673Z,340
2017-05-19T09:00:21.386Z,335
2017-05-19T09:01:22.105Z,345
2017-05-19T09:02:22.818Z,345
2017-05-19T09:03:23.529Z,360
2017-05-19T09:04:24.490Z,365
2017-05-19T09:05:25.197Z,345
2017-05-19T09:06:25.903Z,325
2017-05-19T09:07:26.615Z,355
2017-05-19T09:08:27.330Z,360
2017-05-19T09:09:28.240Z,350
2017-05-19T09:10:28.949Z,355
2017-05-19T09:11:29.668Z,370
2017-05-19T09:12:30.378Z,365
2017-05-19T09:13:31.090Z,400
2017-05-19T09:14:32.049Z,385
2017-05-19T09:15:32.756Z,385
2017-05-19T09:16:33.482Z,350
2017-05-19T09:17:34.193Z,350
2017-05-19T09:18:34.907Z,350
2017-05-19T09:19:35.877Z,340
2017-05-19T09:20:36.599Z,335
2017-05-19T09:21:37.312Z,340
2017-05-19T09:22:38.023Z,380
2017-05-19T09:23:38.740Z,405
2017-05-19T09:24:39.695Z,390
2017-05-19T09:25:40.412Z,350
2017-05-19T09:26:41.123Z,305
2017-05-19T09:27:41.834Z,250
2017-05-19T09:28:42.545Z,210
2017-05-19T09:29:43.457Z,200
2017-05-19T09:30:44.168Z,205
2017-05-19T09:31:44.882Z,230
2017-05-19T09:32:45.594Z,235
2017-05-19T09:33:46.308Z,235
2017-05-19T09:34:47.273Z,230
2017-05-19T09:35:47.987Z,240
2017-05-19T09:36:48.712Z,220
2017-05-19T09:37:49.427Z,225
2017-05-19T09:38:50.143Z,190
2017-05-19T09:39:51.105Z,195
2017-05-19T09:40:51.815Z,225
2017-05-19T09:41:52.529Z,260
2017-05-19T09:42:53.240Z,280
2017-05-19T09:43:53.953Z,300
2017-05-19T09:44:54.865Z,310
2017-05-19T09:45:55.576Z,290
2017-05-19T09:46:56.290Z,270
2017-05-19T09:47:57.006Z,235
2017-05-19T09:48:57.719Z,205
2017-05-19T09:49:58.434Z,200
2017-05-19T09:50:59.146Z,210
2017-05-19T09:51:59.858Z,215
2017-05-19T09:53:00.568Z,215
2017-05-19T09:54:01.280Z,230
2017-05-19T09:55:02.189Z,230
2017-05-19T09:56:02.898Z,225
2017-05-19T09:57:03.609Z,235
2017-05-19T09:58:04.320Z,250
2017-05-19T09:59:05.029Z,270
2017-05-19T10:00:06.093Z,280
2017-05-19T10:01:06.804Z,285
2017-05-19T10:02:07.515Z,315
2017-05-19T10:03:08.229Z,310
2017-05-19T10:04:08.945Z,290
2017-05-19T10:05:09.862Z,285
2017-05-19T10:06:10.572Z,280
2017-05-19T10:07:11.285Z,265
2017-05-19T10:08:12.015Z,265
2017-05-19T10:09:12.728Z,285
2017-05-19T10:10:13.689Z,280
2017-05-19T10:11:14.402Z,300
2017-05-19T10:12:15.113Z,320
2017-05-19T10:13:15.825Z,345
2017-05-19T10:14:16.537Z,340
2017-05-19T10:15:17.502Z,340
2017-05-19T10:16:18.216Z,345
2017-05-19T10:17:18.927Z,350
2017-05-19T10:18:19.638Z,360
2017-05-19T10:19:20.350Z,385
2017-05-19T10:20:21.313Z,370
2017-05-19T10:21:22.041Z,345
2017-05-19T10:22:22.751Z,310
2017-05-19T10:23:23.461Z,325
2017-05-19T10:24:24.171Z,315
2017-05-19T10:25:25.133Z,350
2017-05-19T10:26:25.844Z,345
2017-05-19T10:27:26.559Z,340
2017-05-19T10:28:27.272Z,300
2017-05-19T10:29:27.991Z,300
2017-05-19T10:30:28.952Z,325
2017-05-19T10:31:29.661Z,405
2017-05-19T10:32:30.371Z,375
2017-05-19T10:33:31.083Z,330
2017-05-19T10:34:31.802Z,320
2017-05-19T10:35:32.768Z,285
2017-05-19T10:36:33.490Z,335
2017-05-19T10:37:34.203Z,350
2017-05-19T10:38:34.920Z,330
2017-05-19T10:39:35.633Z,275
2017-05-19T10:40:36.603Z,290
2017-05-19T10:41:37.310Z,340
2017-05-19T10:42:38.028Z,330
2017-05-19T10:43:38.742Z,300
2017-05-19T10:44:39.455Z,320
2017-05-19T10:45:40.415Z,335
2017-05-19T10:46:41.126Z,365
2017-05-19T10:47:41.841Z,400
2017-05-19T10:48:42.548Z,440
2017-05-19T10:49:43.261Z,425
2017-05-19T10:50:44.227Z,425
2017-05-19T10:51:44.946Z,450
2017-05-19T10:52:45.657Z,465
2017-05-19T10:53:46.374Z,425
2017-05-19T10:54:47.086Z,380
2017-05-19T10:55:48.053Z,375
2017-05-19T10:56:48.763Z,395
2017-05-19T10:57:49.478Z,390
2017-05-19T10:58:50.191Z,370
2017-05-19T10:59:50.904Z,340
2017-05-19T11:00:51.865Z,365
2017-05-19T11:01:52.576Z,400
2017-05-19T11:02:53.294Z,445
2017-05-19T11:03:54.002Z,445
2017-05-19T11:04:54.710Z,475
2017-05-19T11:05:55.679Z,475
2017-05-19T11:06:56.400Z,530
2017-05-19T11:07:57.115Z,490
2017-05-19T11:08:57.827Z,405
2017-05-19T11:09:58.537Z,340
2017-05-19T11:10:59.445Z,350
2017-05-19T11:12:00.154Z,385
2017-05-19T11:13:00.863Z,350
2017-05-19T11:14:01.578Z,335
2017-05-19T11:15:02.289Z,330
2017-05-19T11:16:03.200Z,340
2017-05-19T11:17:03.921Z,360
2017-05-19T11:18:04.633Z,365
2017-05-19T11:19:05.345Z,340
2017-05-19T11:20:06.059Z,375
2017-05-19T11:21:06.968Z,410
2017-05-19T11:22:07.684Z,420
2017-05-19T11:23:08.404Z,410
2017-05-19T11:24:09.118Z,370
2017-05-19T11:25:09.828Z,360
2017-05-19T11:26:10.548Z,355
2017-05-19T11:27:11.260Z,330
2017-05-19T11:28:11.973Z,325
2017-05-19T11:29:12.695Z,370
2017-05-19T11:30:13.406Z,470
2017-05-19T11:31:14.373Z,420
2017-05-19T11:32:15.090Z,430
2017-05-19T11:33:15.802Z,480
2017-05-19T11:34:16.514Z,525
2017-05-19T11:35:17.236Z,620
2017-05-19T11:36:18.203Z,740
2017-05-19T11:37:18.915Z,1190
2017-05-19T11:38:19.626Z,1785
2017-05-19T11:39:20.339Z,1880
2017-05-19T11:40:21.057Z,1870
2017-05-19T11:41:21.973Z,1255
2017-05-19T11:42:22.688Z,1545
2017-05-19T11:43:23.400Z,855
2017-05-19T11:44:24.112Z,450
2017-05-19T11:45:24.751Z,470
2017-05-19T11:46:25.726Z,885
2017-05-19T11:47:26.437Z,440
2017-05-19T11:48:27.156Z,550
2017-05-19T11:49:27.872Z,400
2017-05-19T11:50:28.590Z,380
2017-05-19T11:51:29.505Z,410
2017-05-19T11:52:30.217Z,535
2017-05-19T11:53:30.928Z,595
2017-05-19T11:54:31.641Z,805
2017-05-19T11:55:32.353Z,665
2017-05-19T11:56:33.262Z,645
2017-05-19T11:57:33.975Z,600
2017-05-19T11:58:34.690Z,710
2017-05-19T11:59:35.403Z,720
2017-05-19T12:00:36.118Z,665
2017-05-19T12:01:36.834Z,525
2017-05-19T12:02:37.545Z,475
2017-05-19T12:03:38.267Z,495
2017-05-19T12:04:38.983Z,630
2017-05-19T12:05:39.704Z,600
2017-05-19T12:06:40.664Z,680
2017-05-19T12:07:41.376Z,555
2017-05-19T12:08:42.098Z,575
2017-05-19T12:09:42.813Z,535
2017-05-19T12:10:43.523Z,470
2017-05-19T12:11:44.232Z,430
2017-05-19T12:12:44.946Z,255
2017-05-19T12:13:45.664Z,235
2017-05-19T12:14:46.377Z,225
2017-05-19T12:15:47.089Z,195
2017-05-19T12:16:48.050Z,180
2017-05-19T12:17:48.762Z,165
2017-05-19T12:18:49.482Z,185
2017-05-19T12:19:50.199Z,195
2017-05-19T12:20:50.909Z,185
2017-05-19T12:21:51.819Z,170
2017-05-19T12:22:52.533Z,160
2017-05-19T12:23:53.243Z,150
2017-05-19T12:24:53.970Z,135
2017-05-19T12:25:54.689Z,125
2017-05-19T12:26:55.657Z,115
2017-05-19T12:27:56.370Z,115
2017-05-19T12:28:57.083Z,110
2017-05-19T12:29:57.796Z,105
2017-05-19T12:30:58.509Z,120
2017-05-19T12:31:59.470Z,145
2017-05-19T12:33:00.182Z,160
2017-05-19T12:34:00.896Z,170
2017-05-19T12:35:01.605Z,175
2017-05-19T12:36:02.324Z,170
2017-05-19T12:37:03.286Z,170
2017-05-19T12:38:03.998Z,150
2017-05-19T12:39:04.712Z,110
2017-05-19T12:40:05.422Z,80
2017-05-19T12:41:06.132Z,65
2017-05-19T12:42:07.043Z,60
2017-05-19T12:43:07.749Z,60
2017-05-19T12:44:08.462Z,75
2017-05-19T12:45:09.172Z,120
2017-05-19T12:46:09.883Z,190
2017-05-19T12:47:10.843Z,200
2017-05-19T12:48:11.558Z,200
2017-05-19T12:49:12.277Z,215
2017-05-19T12:50:13.072Z,225
2017-05-19T12:51:13.778Z,240
2017-05-19T12:52:14.490Z,245
2017-05-19T12:53:15.198Z,255
2017-05-19T12:54:16.157Z,325
2017-05-19T12:55:16.883Z,545
2017-05-19T12:56:17.592Z,325
2017-05-19T12:57:18.302Z,265
2017-05-19T12:58:19.017Z,245
2017-05-19T12:59:19.978Z,210
2017-05-19T13:00:20.689Z,160
2017-05-19T13:01:21.396Z,160
2017-05-19T13:02:22.102Z,165
2017-05-19T13:03:22.822Z,170
2017-05-19T13:04:23.788Z,165
2017-05-19T13:05:24.495Z,160
2017-05-19T13:06:25.202Z,165
2017-05-19T13:07:25.911Z,180
2017-05-19T13:08:26.627Z,220
2017-05-19T13:09:27.588Z,255
2017-05-19T13:10:28.303Z,310
2017-05-19T13:11:29.012Z,440
2017-05-19T13:12:29.719Z,835
2017-05-19T13:13:30.429Z,490
2017-05-19T13:14:31.387Z,570
2017-05-19T13:15:32.101Z,520
2017-05-19T13:16:32.814Z,450
2017-05-19T13:17:33.529Z,490
2017-05-19T13:18:34.237Z,440
2017-05-19T13:19:34.955Z,440
2017-05-19T13:20:35.665Z,475
2017-05-19T13:21:36.637Z,625
2017-05-19T13:22:37.425Z,420
2017-05-19T13:23:38.133Z,295
2017-05-19T13:24:38.851Z,290
2017-05-19T13:25:39.558Z,335
2017-05-19T13:26:40.470Z,300
2017-05-19T13:27:41.177Z,275
2017-05-19T13:28:41.885Z,235
2017-05-19T13:29:42.607Z,215
2017-05-19T13:30:43.319Z,185
2017-05-19T13:31:44.276Z,160
2017-05-19T13:32:44.993Z,160
2017-05-19T13:33:45.701Z,170
2017-05-19T13:34:46.412Z,155
2017-05-19T13:35:47.125Z,135
2017-05-19T13:36:48.086Z,135
2017-05-19T13:37:48.798Z,135
2017-05-19T13:38:49.509Z,135
2017-05-19T13:39:50.215Z,155
2017-05-19T13:40:50.925Z,165
2017-05-19T13:41:51.886Z,160
2017-05-19T13:42:52.592Z,170
2017-05-19T13:43:53.300Z,170
2017-05-19T13:44:54.015Z,155
2017-05-19T13:45:54.724Z,150
2017-05-19T13:46:55.679Z,170
2017-05-19T13:47:56.385Z,180
2017-05-19T13:48:57.098Z,190
2017-05-19T13:49:57.831Z,195
2017-05-19T13:50:58.543Z,190
2017-05-19T13:51:59.507Z,185
2017-05-19T13:53:00.219Z,175
2017-05-19T13:54:00.927Z,155
2017-05-19T13:55:01.634Z,130
2017-05-19T13:56:02.353Z,170
2017-05-19T13:57:03.307Z,165
2017-05-19T13:58:04.061Z,150
2017-05-19T13:59:04.777Z,145
2017-05-19T14:00:05.484Z,145
2017-05-19T14:01:06.202Z,140
2017-05-19T14:02:07.108Z,130
2017-05-19T14:03:07.830Z,120
2017-05-19T14:04:08.541Z,120
2017-05-19T14:05:09.249Z,110
2017-05-19T14:06:09.960Z,105
2017-05-19T14:07:10.916Z,90
2017-05-19T14:08:11.622Z,75
2017-05-19T14:09:12.329Z,65
2017-05-19T14:10:13.046Z,55
2017-05-19T14:11:13.758Z,45
2017-05-19T14:12:14.711Z,40
2017-05-19T14:13:15.415Z,35
2017-05-19T14:14:16.124Z,35
2017-05-19T14:15:16.834Z,35
2017-05-19T14:16:17.538Z,35
2017-05-19T14:17:18.490Z,30
2017-05-19T14:18:19.199Z,35